sensor_id;sensor_type;location;lat;lon;timestamp;P1;durP1;ratioP1;P2;durP2;ratioP2
73089;SDS011;61269;49.450;8.610;2023-05-28T00:01:51;5.67;;;1.60;;
73089;SDS011;61269;49.450;8.610;2023-05-28T00:04:21;7.03;;;1.40;;
73089;SDS011;61269;49.450;8.610;2023-05-28T00:06:51;4.70;;;1.40;;
73089;SDS011;61269;49.450;8.610;2023-05-28T00:09:22;6.85;;;1.75;;
73089;SDS011;61269;49.450;8.610;2023-05-28T00:11:50;5.40;;;2.00;;
73089;SDS011;61269;49.450;8.610;2023-05-28T00:14:18;5.10;;;1.40;;
73089;SDS011;61269;49.450;8.610;2023-05-28T00:16:47;5.32;;;1.70;;
73089;SDS011;61269;49.450;8.610;2023-05-28T00:19:18;6.03;;;1.67;;
73089;SDS011;61269;49.450;8.610;2023-05-28T00:21:47;4.80;;;2.00;;
73089;SDS011;61269;49.450;8.610;2023-05-28T00:24:15;6.00;;;1.80;;
73089;SDS011;61269;49.450;8.610;2023-05-28T00:26:44;6.37;;;1.97;;
73089;SDS011;61269;49.450;8.610;2023-05-28T00:29:12;4.85;;;1.40;;
73089;SDS011;61269;49.450;8.610;2023-05-28T00:31:41;5.55;;;1.58;;
73089;SDS011;61269;49.450;8.610;2023-05-28T00:34:09;3.85;;;1.30;;
73089;SDS011;61269;49.450;8.610;2023-05-28T00:36:37;6.40;;;1.90;;
73089;SDS011;61269;49.450;8.610;2023-05-28T00:39:06;5.63;;;1.67;;
73089;SDS011;61269;49.450;8.610;2023-05-28T00:41:35;6.03;;;1.70;;
73089;SDS011;61269;49.450;8.610;2023-05-28T00:44:03;4.25;;;1.35;;
73089;SDS011;61269;49.450;8.610;2023-05-28T00:46:32;5.28;;;1.90;;
73089;SDS011;61269;49.450;8.610;2023-05-28T00:49:01;6.93;;;1.83;;
73089;SDS011;61269;49.450;8.610;2023-05-28T00:51:29;5.67;;;1.77;;
73089;SDS011;61269;49.450;8.610;2023-05-28T00:53:59;5.00;;;1.58;;
73089;SDS011;61269;49.450;8.610;2023-05-28T00:56:29;6.43;;;2.08;;
73089;SDS011;61269;49.450;8.610;2023-05-28T00:58:58;6.00;;;2.10;;
73089;SDS011;61269;49.450;8.610;2023-05-28T01:01:27;6.28;;;1.73;;
73089;SDS011;61269;49.450;8.610;2023-05-28T01:03:56;6.73;;;1.63;;
73089;SDS011;61269;49.450;8.610;2023-05-28T01:06:25;6.10;;;2.03;;
73089;SDS011;61269;49.450;8.610;2023-05-28T01:08:55;5.35;;;1.98;;
73089;SDS011;61269;49.450;8.610;2023-05-28T01:11:24;6.40;;;1.83;;
73089;SDS011;61269;49.450;8.610;2023-05-28T01:13:54;4.50;;;1.80;;
73089;SDS011;61269;49.450;8.610;2023-05-28T01:16:22;6.23;;;2.00;;
73089;SDS011;61269;49.450;8.610;2023-05-28T01:18:55;5.57;;;1.55;;
73089;SDS011;61269;49.450;8.610;2023-05-28T01:21:23;5.68;;;2.20;;
73089;SDS011;61269;49.450;8.610;2023-05-28T01:23:56;4.60;;;1.40;;
73089;SDS011;61269;49.450;8.610;2023-05-28T01:26:26;6.78;;;1.73;;
73089;SDS011;61269;49.450;8.610;2023-05-28T01:28:55;6.73;;;2.40;;
73089;SDS011;61269;49.450;8.610;2023-05-28T01:31:24;5.95;;;2.10;;
73089;SDS011;61269;49.450;8.610;2023-05-28T01:33:53;6.05;;;1.63;;
73089;SDS011;61269;49.450;8.610;2023-05-28T01:36:22;5.63;;;1.70;;
73089;SDS011;61269;49.450;8.610;2023-05-28T01:38:53;3.75;;;1.13;;
73089;SDS011;61269;49.450;8.610;2023-05-28T01:41:28;4.57;;;1.60;;
73089;SDS011;61269;49.450;8.610;2023-05-28T01:43:57;6.25;;;1.80;;
73089;SDS011;61269;49.450;8.610;2023-05-28T01:46:27;8.15;;;1.70;;
73089;SDS011;61269;49.450;8.610;2023-05-28T01:48:55;6.40;;;1.50;;
73089;SDS011;61269;49.450;8.610;2023-05-28T01:51:24;5.70;;;1.80;;
73089;SDS011;61269;49.450;8.610;2023-05-28T01:53:52;6.37;;;2.30;;
73089;SDS011;61269;49.450;8.610;2023-05-28T01:56:22;6.05;;;1.70;;
73089;SDS011;61269;49.450;8.610;2023-05-28T01:58:50;4.10;;;1.60;;
73089;SDS011;61269;49.450;8.610;2023-05-28T02:01:20;5.90;;;1.88;;
73089;SDS011;61269;49.450;8.610;2023-05-28T02:03:54;4.63;;;1.83;;
73089;SDS011;61269;49.450;8.610;2023-05-28T02:06:24;5.43;;;1.57;;
73089;SDS011;61269;49.450;8.610;2023-05-28T02:08:54;6.18;;;1.60;;
73089;SDS011;61269;49.450;8.610;2023-05-28T02:11:23;4.75;;;1.75;;
73089;SDS011;61269;49.450;8.610;2023-05-28T02:13:55;5.15;;;1.45;;
73089;SDS011;61269;49.450;8.610;2023-05-28T02:16:24;7.28;;;2.17;;
73089;SDS011;61269;49.450;8.610;2023-05-28T02:18:54;6.47;;;2.00;;
73089;SDS011;61269;49.450;8.610;2023-05-28T02:21:23;5.85;;;1.80;;
73089;SDS011;61269;49.450;8.610;2023-05-28T02:23:52;5.28;;;2.10;;
73089;SDS011;61269;49.450;8.610;2023-05-28T02:26:20;5.00;;;1.65;;
73089;SDS011;61269;49.450;8.610;2023-05-28T02:28:50;5.03;;;1.90;;
73089;SDS011;61269;49.450;8.610;2023-05-28T02:31:18;5.70;;;2.10;;
73089;SDS011;61269;49.450;8.610;2023-05-28T02:33:47;5.30;;;1.85;;
73089;SDS011;61269;49.450;8.610;2023-05-28T02:36:15;5.57;;;1.83;;
73089;SDS011;61269;49.450;8.610;2023-05-28T02:38:43;6.63;;;1.77;;
73089;SDS011;61269;49.450;8.610;2023-05-28T02:41:11;6.40;;;1.77;;
73089;SDS011;61269;49.450;8.610;2023-05-28T02:43:45;4.57;;;1.63;;
73089;SDS011;61269;49.450;8.610;2023-05-28T02:46:16;4.88;;;1.70;;
73089;SDS011;61269;49.450;8.610;2023-05-28T02:48:44;4.65;;;1.80;;
73089;SDS011;61269;49.450;8.610;2023-05-28T02:51:16;4.80;;;1.65;;
73089;SDS011;61269;49.450;8.610;2023-05-28T02:54:02;4.45;;;1.83;;
73089;SDS011;61269;49.450;8.610;2023-05-28T02:56:31;5.80;;;1.57;;
73089;SDS011;61269;49.450;8.610;2023-05-28T02:58:59;4.45;;;1.60;;
73089;SDS011;61269;49.450;8.610;2023-05-28T03:01:28;7.35;;;2.22;;
73089;SDS011;61269;49.450;8.610;2023-05-28T03:03:57;6.60;;;1.88;;
73089;SDS011;61269;49.450;8.610;2023-05-28T03:06:25;5.50;;;1.83;;
73089;SDS011;61269;49.450;8.610;2023-05-28T03:08:54;6.30;;;2.00;;
73089;SDS011;61269;49.450;8.610;2023-05-28T03:11:22;5.55;;;1.70;;
73089;SDS011;61269;49.450;8.610;2023-05-28T03:13:50;4.80;;;1.92;;
73089;SDS011;61269;49.450;8.610;2023-05-28T03:16:19;7.53;;;2.15;;
73089;SDS011;61269;49.450;8.610;2023-05-28T03:18:49;6.18;;;1.88;;
73089;SDS011;61269;49.450;8.610;2023-05-28T03:21:18;5.73;;;2.03;;
73089;SDS011;61269;49.450;8.610;2023-05-28T03:23:46;6.78;;;2.65;;
73089;SDS011;61269;49.450;8.610;2023-05-28T03:26:24;5.78;;;2.25;;
73089;SDS011;61269;49.450;8.610;2023-05-28T03:28:54;5.53;;;2.00;;
73089;SDS011;61269;49.450;8.610;2023-05-28T03:31:42;6.57;;;1.90;;
73089;SDS011;61269;49.450;8.610;2023-05-28T03:34:14;7.40;;;2.77;;
73089;SDS011;61269;49.450;8.610;2023-05-28T03:36:42;7.63;;;2.13;;
73089;SDS011;61269;49.450;8.610;2023-05-28T03:39:11;5.60;;;2.03;;
73089;SDS011;61269;49.450;8.610;2023-05-28T03:41:39;5.45;;;2.10;;
73089;SDS011;61269;49.450;8.610;2023-05-28T03:44:09;9.50;;;2.60;;
73089;SDS011;61269;49.450;8.610;2023-05-28T03:46:38;6.57;;;2.40;;
73089;SDS011;61269;49.450;8.610;2023-05-28T03:49:07;5.47;;;2.00;;
73089;SDS011;61269;49.450;8.610;2023-05-28T03:51:37;6.82;;;2.42;;
73089;SDS011;61269;49.450;8.610;2023-05-28T03:54:05;8.00;;;3.00;;
73089;SDS011;61269;49.450;8.610;2023-05-28T03:56:34;6.82;;;2.50;;
73089;SDS011;61269;49.450;8.610;2023-05-28T03:59:03;6.83;;;2.33;;
73089;SDS011;61269;49.450;8.610;2023-05-28T04:01:32;7.78;;;2.25;;
73089;SDS011;61269;49.450;8.610;2023-05-28T04:04:01;7.15;;;2.47;;
73089;SDS011;61269;49.450;8.610;2023-05-28T04:06:31;7.43;;;2.70;;
73089;SDS011;61269;49.450;8.610;2023-05-28T04:09:01;6.28;;;2.03;;
73089;SDS011;61269;49.450;8.610;2023-05-28T04:11:30;8.90;;;2.40;;
73089;SDS011;61269;49.450;8.610;2023-05-28T04:13:59;7.35;;;2.33;;
73089;SDS011;61269;49.450;8.610;2023-05-28T04:16:27;7.80;;;2.35;;
73089;SDS011;61269;49.450;8.610;2023-05-28T04:18:55;7.28;;;2.38;;
73089;SDS011;61269;49.450;8.610;2023-05-28T04:21:24;7.00;;;2.40;;
73089;SDS011;61269;49.450;8.610;2023-05-28T04:23:52;6.07;;;2.07;;
73089;SDS011;61269;49.450;8.610;2023-05-28T04:26:22;7.10;;;2.22;;
73089;SDS011;61269;49.450;8.610;2023-05-28T04:28:50;6.50;;;2.85;;
73089;SDS011;61269;49.450;8.610;2023-05-28T04:31:19;7.57;;;2.40;;
73089;SDS011;61269;49.450;8.610;2023-05-28T04:33:48;6.45;;;2.38;;
73089;SDS011;61269;49.450;8.610;2023-05-28T04:36:17;4.93;;;2.10;;
73089;SDS011;61269;49.450;8.610;2023-05-28T04:38:45;7.53;;;2.50;;
73089;SDS011;61269;49.450;8.610;2023-05-28T04:41:14;4.80;;;2.10;;
73089;SDS011;61269;49.450;8.610;2023-05-28T04:43:44;7.13;;;2.65;;
73089;SDS011;61269;49.450;8.610;2023-05-28T04:46:12;6.72;;;2.25;;
73089;SDS011;61269;49.450;8.610;2023-05-28T04:48:41;5.50;;;1.80;;
73089;SDS011;61269;49.450;8.610;2023-05-28T04:51:09;5.22;;;1.98;;
73089;SDS011;61269;49.450;8.610;2023-05-28T04:53:38;8.85;;;2.30;;
73089;SDS011;61269;49.450;8.610;2023-05-28T04:56:06;7.18;;;1.98;;
73089;SDS011;61269;49.450;8.610;2023-05-28T04:58:35;7.07;;;2.25;;
73089;SDS011;61269;49.450;8.610;2023-05-28T05:01:05;7.90;;;2.30;;
73089;SDS011;61269;49.450;8.610;2023-05-28T05:03:35;8.13;;;2.50;;
73089;SDS011;61269;49.450;8.610;2023-05-28T05:06:05;5.13;;;1.90;;
73089;SDS011;61269;49.450;8.610;2023-05-28T05:08:33;5.55;;;2.10;;
73089;SDS011;61269;49.450;8.610;2023-05-28T05:11:02;6.47;;;2.22;;
73089;SDS011;61269;49.450;8.610;2023-05-28T05:13:32;6.90;;;2.37;;
73089;SDS011;61269;49.450;8.610;2023-05-28T05:16:01;7.30;;;2.10;;
73089;SDS011;61269;49.450;8.610;2023-05-28T05:18:31;6.68;;;2.38;;
73089;SDS011;61269;49.450;8.610;2023-05-28T05:20:59;6.65;;;2.33;;
73089;SDS011;61269;49.450;8.610;2023-05-28T05:23:27;6.30;;;2.30;;
73089;SDS011;61269;49.450;8.610;2023-05-28T05:25:56;6.63;;;2.23;;
73089;SDS011;61269;49.450;8.610;2023-05-28T05:28:24;6.13;;;2.13;;
73089;SDS011;61269;49.450;8.610;2023-05-28T05:30:53;6.32;;;2.30;;
73089;SDS011;61269;49.450;8.610;2023-05-28T05:33:21;5.60;;;2.30;;
73089;SDS011;61269;49.450;8.610;2023-05-28T05:36:20;7.72;;;2.53;;
73089;SDS011;61269;49.450;8.610;2023-05-28T05:39:06;8.13;;;2.00;;
73089;SDS011;61269;49.450;8.610;2023-05-28T05:41:58;6.70;;;2.47;;
73089;SDS011;61269;49.450;8.610;2023-05-28T05:44:32;5.75;;;2.20;;
73089;SDS011;61269;49.450;8.610;2023-05-28T05:47:00;8.52;;;2.38;;
73089;SDS011;61269;49.450;8.610;2023-05-28T05:49:28;10.10;;;2.97;;
73089;SDS011;61269;49.450;8.610;2023-05-28T05:51:58;7.83;;;2.37;;
73089;SDS011;61269;49.450;8.610;2023-05-28T05:54:27;8.18;;;2.60;;
73089;SDS011;61269;49.450;8.610;2023-05-28T05:56:55;6.72;;;2.50;;
73089;SDS011;61269;49.450;8.610;2023-05-28T05:59:24;6.40;;;2.47;;
73089;SDS011;61269;49.450;8.610;2023-05-28T06:01:52;6.32;;;2.50;;
73089;SDS011;61269;49.450;8.610;2023-05-28T06:04:22;7.77;;;2.27;;
73089;SDS011;61269;49.450;8.610;2023-05-28T06:07:21;5.93;;;2.17;;
73089;SDS011;61269;49.450;8.610;2023-05-28T06:10:12;6.78;;;2.33;;
73089;SDS011;61269;49.450;8.610;2023-05-28T06:12:42;5.97;;;2.47;;
73089;SDS011;61269;49.450;8.610;2023-05-28T06:15:10;6.38;;;2.17;;
73089;SDS011;61269;49.450;8.610;2023-05-28T06:17:38;5.87;;;2.10;;
73089;SDS011;61269;49.450;8.610;2023-05-28T06:20:07;7.03;;;2.22;;
73089;SDS011;61269;49.450;8.610;2023-05-28T06:22:38;6.22;;;2.33;;
73089;SDS011;61269;49.450;8.610;2023-05-28T06:25:06;6.53;;;2.22;;
73089;SDS011;61269;49.450;8.610;2023-05-28T06:27:35;6.00;;;2.67;;
73089;SDS011;61269;49.450;8.610;2023-05-28T06:30:04;5.83;;;2.50;;
73089;SDS011;61269;49.450;8.610;2023-05-28T06:32:33;8.60;;;2.28;;
73089;SDS011;61269;49.450;8.610;2023-05-28T06:35:02;8.88;;;2.13;;
73089;SDS011;61269;49.450;8.610;2023-05-28T06:37:31;7.82;;;2.38;;
73089;SDS011;61269;49.450;8.610;2023-05-28T06:40:00;7.53;;;2.60;;
73089;SDS011;61269;49.450;8.610;2023-05-28T06:42:33;5.97;;;2.03;;
73089;SDS011;61269;49.450;8.610;2023-05-28T06:45:12;7.63;;;2.58;;
73089;SDS011;61269;49.450;8.610;2023-05-28T06:47:41;7.43;;;2.78;;
73089;SDS011;61269;49.450;8.610;2023-05-28T06:50:09;7.55;;;2.38;;
73089;SDS011;61269;49.450;8.610;2023-05-28T06:52:38;5.97;;;2.08;;
73089;SDS011;61269;49.450;8.610;2023-05-28T06:55:08;8.60;;;1.83;;
73089;SDS011;61269;49.450;8.610;2023-05-28T06:57:42;5.90;;;2.00;;
73089;SDS011;61269;49.450;8.610;2023-05-28T07:00:40;6.88;;;1.85;;
73089;SDS011;61269;49.450;8.610;2023-05-28T07:03:25;5.43;;;1.70;;
73089;SDS011;61269;49.450;8.610;2023-05-28T07:06:19;6.70;;;1.98;;
73089;SDS011;61269;49.450;8.610;2023-05-28T07:08:48;6.90;;;1.80;;
73089;SDS011;61269;49.450;8.610;2023-05-28T07:11:18;6.85;;;1.90;;
73089;SDS011;61269;49.450;8.610;2023-05-28T07:13:47;6.35;;;2.03;;
73089;SDS011;61269;49.450;8.610;2023-05-28T07:16:15;6.38;;;1.60;;
73089;SDS011;61269;49.450;8.610;2023-05-28T07:18:44;5.78;;;1.80;;
73089;SDS011;61269;49.450;8.610;2023-05-28T07:21:12;4.03;;;1.63;;
73089;SDS011;61269;49.450;8.610;2023-05-28T07:23:44;7.78;;;1.98;;
73089;SDS011;61269;49.450;8.610;2023-05-28T07:26:13;7.45;;;1.85;;
73089;SDS011;61269;49.450;8.610;2023-05-28T07:28:43;5.97;;;2.00;;
73089;SDS011;61269;49.450;8.610;2023-05-28T07:31:11;5.85;;;1.55;;
73089;SDS011;61269;49.450;8.610;2023-05-28T07:33:42;4.87;;;1.47;;
73089;SDS011;61269;49.450;8.610;2023-05-28T07:36:10;8.50;;;2.30;;
73089;SDS011;61269;49.450;8.610;2023-05-28T07:38:39;5.72;;;1.80;;
73089;SDS011;61269;49.450;8.610;2023-05-28T07:41:08;7.53;;;2.00;;
73089;SDS011;61269;49.450;8.610;2023-05-28T07:43:45;8.15;;;2.13;;
73089;SDS011;61269;49.450;8.610;2023-05-28T07:46:18;6.57;;;1.77;;
73089;SDS011;61269;49.450;8.610;2023-05-28T07:48:53;8.05;;;2.03;;
73089;SDS011;61269;49.450;8.610;2023-05-28T07:51:24;5.63;;;1.70;;
73089;SDS011;61269;49.450;8.610;2023-05-28T07:54:06;7.03;;;2.10;;
73089;SDS011;61269;49.450;8.610;2023-05-28T07:56:35;6.13;;;2.03;;
73089;SDS011;61269;49.450;8.610;2023-05-28T07:59:06;6.30;;;1.77;;
73089;SDS011;61269;49.450;8.610;2023-05-28T08:01:35;4.88;;;1.73;;
73089;SDS011;61269;49.450;8.610;2023-05-28T08:04:05;5.47;;;1.42;;
73089;SDS011;61269;49.450;8.610;2023-05-28T08:06:36;7.18;;;2.03;;
73089;SDS011;61269;49.450;8.610;2023-05-28T08:09:08;9.13;;;2.55;;
73089;SDS011;61269;49.450;8.610;2023-05-28T08:11:38;8.00;;;2.40;;
73089;SDS011;61269;49.450;8.610;2023-05-28T08:14:08;6.90;;;2.22;;
73089;SDS011;61269;49.450;8.610;2023-05-28T08:16:39;5.90;;;2.20;;
73089;SDS011;61269;49.450;8.610;2023-05-28T08:19:24;7.13;;;1.88;;
73089;SDS011;61269;49.450;8.610;2023-05-28T08:21:57;6.95;;;2.28;;
73089;SDS011;61269;49.450;8.610;2023-05-28T08:24:28;6.00;;;1.70;;
73089;SDS011;61269;49.450;8.610;2023-05-28T08:26:56;9.38;;;2.30;;
73089;SDS011;61269;49.450;8.610;2023-05-28T08:29:28;6.50;;;1.77;;
73089;SDS011;61269;49.450;8.610;2023-05-28T08:32:01;6.25;;;1.80;;
73089;SDS011;61269;49.450;8.610;2023-05-28T08:34:33;8.48;;;2.70;;
73089;SDS011;61269;49.450;8.610;2023-05-28T08:37:03;5.73;;;1.77;;
73089;SDS011;61269;49.450;8.610;2023-05-28T08:39:45;7.95;;;1.77;;
73089;SDS011;61269;49.450;8.610;2023-05-28T08:42:13;5.78;;;1.60;;
73089;SDS011;61269;49.450;8.610;2023-05-28T08:44:43;6.65;;;1.80;;
73089;SDS011;61269;49.450;8.610;2023-05-28T08:47:11;7.35;;;1.50;;
73089;SDS011;61269;49.450;8.610;2023-05-28T08:49:56;7.23;;;1.90;;
73089;SDS011;61269;49.450;8.610;2023-05-28T08:52:33;6.30;;;1.83;;
73089;SDS011;61269;49.450;8.610;2023-05-28T08:55:02;5.20;;;1.50;;
73089;SDS011;61269;49.450;8.610;2023-05-28T08:57:34;6.65;;;1.80;;
73089;SDS011;61269;49.450;8.610;2023-05-28T09:00:07;5.20;;;1.70;;
73089;SDS011;61269;49.450;8.610;2023-05-28T09:02:57;6.03;;;1.80;;
73089;SDS011;61269;49.450;8.610;2023-05-28T09:05:26;5.25;;;1.52;;
73089;SDS011;61269;49.450;8.610;2023-05-28T09:07:54;5.35;;;1.90;;
73089;SDS011;61269;49.450;8.610;2023-05-28T09:10:23;4.43;;;1.33;;
73089;SDS011;61269;49.450;8.610;2023-05-28T09:12:58;5.30;;;1.35;;
73089;SDS011;61269;49.450;8.610;2023-05-28T09:15:29;6.07;;;1.60;;
73089;SDS011;61269;49.450;8.610;2023-05-28T09:18:00;6.07;;;1.60;;
73089;SDS011;61269;49.450;8.610;2023-05-28T09:20:29;5.75;;;1.67;;
73089;SDS011;61269;49.450;8.610;2023-05-28T09:22:57;6.43;;;2.28;;
73089;SDS011;61269;49.450;8.610;2023-05-28T09:25:48;6.57;;;2.13;;
73089;SDS011;61269;49.450;8.610;2023-05-28T09:28:25;3.80;;;1.40;;
73089;SDS011;61269;49.450;8.610;2023-05-28T09:30:56;5.10;;;1.63;;
73089;SDS011;61269;49.450;8.610;2023-05-28T09:33:30;5.40;;;1.52;;
73089;SDS011;61269;49.450;8.610;2023-05-28T09:36:00;4.90;;;1.58;;
73089;SDS011;61269;49.450;8.610;2023-05-28T09:38:37;4.90;;;1.77;;
73089;SDS011;61269;49.450;8.610;2023-05-28T09:41:16;5.43;;;1.50;;
73089;SDS011;61269;49.450;8.610;2023-05-28T09:43:46;8.10;;;1.90;;
73089;SDS011;61269;49.450;8.610;2023-05-28T09:46:16;5.47;;;2.08;;
73089;SDS011;61269;49.450;8.610;2023-05-28T09:48:44;5.13;;;1.73;;
73089;SDS011;61269;49.450;8.610;2023-05-28T09:51:12;5.47;;;1.48;;
73089;SDS011;61269;49.450;8.610;2023-05-28T09:53:42;5.83;;;1.60;;
73089;SDS011;61269;49.450;8.610;2023-05-28T09:56:11;5.32;;;1.88;;
73089;SDS011;61269;49.450;8.610;2023-05-28T09:58:40;4.38;;;1.63;;
73089;SDS011;61269;49.450;8.610;2023-05-28T10:01:13;5.32;;;1.60;;
73089;SDS011;61269;49.450;8.610;2023-05-28T10:03:43;5.72;;;1.70;;
73089;SDS011;61269;49.450;8.610;2023-05-28T10:06:14;7.90;;;2.53;;
73089;SDS011;61269;49.450;8.610;2023-05-28T10:08:45;7.65;;;2.50;;
73089;SDS011;61269;49.450;8.610;2023-05-28T10:11:16;7.60;;;1.90;;
73089;SDS011;61269;49.450;8.610;2023-05-28T10:13:49;4.95;;;1.50;;
73089;SDS011;61269;49.450;8.610;2023-05-28T10:16:19;6.13;;;1.60;;
73089;SDS011;61269;49.450;8.610;2023-05-28T10:18:48;6.43;;;1.80;;
73089;SDS011;61269;49.450;8.610;2023-05-28T10:21:17;6.72;;;1.77;;
73089;SDS011;61269;49.450;8.610;2023-05-28T10:23:47;4.53;;;1.40;;
73089;SDS011;61269;49.450;8.610;2023-05-28T10:26:16;8.32;;;2.55;;
73089;SDS011;61269;49.450;8.610;2023-05-28T10:28:45;6.00;;;1.42;;
73089;SDS011;61269;49.450;8.610;2023-05-28T10:31:13;5.93;;;1.70;;
73089;SDS011;61269;49.450;8.610;2023-05-28T10:33:50;4.43;;;1.55;;
73089;SDS011;61269;49.450;8.610;2023-05-28T10:36:18;6.57;;;1.80;;
73089;SDS011;61269;49.450;8.610;2023-05-28T10:38:56;6.90;;;1.50;;
73089;SDS011;61269;49.450;8.610;2023-05-28T10:41:27;5.88;;;2.08;;
73089;SDS011;61269;49.450;8.610;2023-05-28T10:44:04;5.80;;;1.50;;
73089;SDS011;61269;49.450;8.610;2023-05-28T10:46:36;7.43;;;1.58;;
73089;SDS011;61269;49.450;8.610;2023-05-28T10:49:08;4.72;;;1.50;;
73089;SDS011;61269;49.450;8.610;2023-05-28T10:51:51;4.70;;;1.80;;
73089;SDS011;61269;49.450;8.610;2023-05-28T10:54:24;5.00;;;1.75;;
73089;SDS011;61269;49.450;8.610;2023-05-28T10:57:14;7.30;;;1.40;;
73089;SDS011;61269;49.450;8.610;2023-05-28T10:59:44;6.93;;;1.83;;
73089;SDS011;61269;49.450;8.610;2023-05-28T11:02:16;6.05;;;1.95;;
73089;SDS011;61269;49.450;8.610;2023-05-28T11:04:47;5.18;;;1.75;;
73089;SDS011;61269;49.450;8.610;2023-05-28T11:07:18;19.42;;;7.88;;
73089;SDS011;61269;49.450;8.610;2023-05-28T11:09:47;15.83;;;5.57;;
73089;SDS011;61269;49.450;8.610;2023-05-28T11:12:17;18.23;;;7.43;;
73089;SDS011;61269;49.450;8.610;2023-05-28T11:14:47;17.50;;;7.03;;
73089;SDS011;61269;49.450;8.610;2023-05-28T11:17:15;12.43;;;3.70;;
73089;SDS011;61269;49.450;8.610;2023-05-28T11:19:44;5.53;;;1.90;;
73089;SDS011;61269;49.450;8.610;2023-05-28T11:22:15;14.53;;;3.93;;
73089;SDS011;61269;49.450;8.610;2023-05-28T11:24:50;10.63;;;3.08;;
73089;SDS011;61269;49.450;8.610;2023-05-28T11:27:20;7.55;;;2.80;;
73089;SDS011;61269;49.450;8.610;2023-05-28T11:29:49;5.63;;;1.70;;
73089;SDS011;61269;49.450;8.610;2023-05-28T11:32:18;6.10;;;1.67;;
73089;SDS011;61269;49.450;8.610;2023-05-28T11:34:47;4.97;;;1.60;;
73089;SDS011;61269;49.450;8.610;2023-05-28T11:37:22;3.33;;;1.27;;
73089;SDS011;61269;49.450;8.610;2023-05-28T11:39:53;5.40;;;1.45;;
73089;SDS011;61269;49.450;8.610;2023-05-28T11:42:23;6.25;;;1.45;;
73089;SDS011;61269;49.450;8.610;2023-05-28T11:44:52;6.15;;;1.63;;
73089;SDS011;61269;49.450;8.610;2023-05-28T11:47:20;4.93;;;1.67;;
73089;SDS011;61269;49.450;8.610;2023-05-28T11:49:49;9.15;;;2.15;;
73089;SDS011;61269;49.450;8.610;2023-05-28T11:52:19;5.38;;;1.50;;
73089;SDS011;61269;49.450;8.610;2023-05-28T11:54:51;4.88;;;1.60;;
73089;SDS011;61269;49.450;8.610;2023-05-28T11:57:21;5.05;;;1.60;;
73089;SDS011;61269;49.450;8.610;2023-05-28T11:59:59;5.70;;;1.50;;
73089;SDS011;61269;49.450;8.610;2023-05-28T12:02:41;6.67;;;1.67;;
73089;SDS011;61269;49.450;8.610;2023-05-28T12:05:09;5.78;;;1.85;;
73089;SDS011;61269;49.450;8.610;2023-05-28T12:07:42;6.72;;;1.70;;
73089;SDS011;61269;49.450;8.610;2023-05-28T12:10:12;20.58;;;8.18;;
73089;SDS011;61269;49.450;8.610;2023-05-28T12:12:41;16.08;;;6.53;;
73089;SDS011;61269;49.450;8.610;2023-05-28T12:15:12;21.70;;;9.23;;
73089;SDS011;61269;49.450;8.610;2023-05-28T12:17:41;11.30;;;4.43;;
73089;SDS011;61269;49.450;8.610;2023-05-28T12:20:29;5.90;;;1.50;;
73089;SDS011;61269;49.450;8.610;2023-05-28T12:23:02;5.82;;;1.50;;
73089;SDS011;61269;49.450;8.610;2023-05-28T12:25:46;5.72;;;1.85;;
73089;SDS011;61269;49.450;8.610;2023-05-28T12:28:16;5.90;;;1.60;;
73089;SDS011;61269;49.450;8.610;2023-05-28T12:30:46;4.65;;;1.60;;
73089;SDS011;61269;49.450;8.610;2023-05-28T12:33:17;6.05;;;1.80;;
73089;SDS011;61269;49.450;8.610;2023-05-28T12:35:45;6.30;;;1.60;;
73089;SDS011;61269;49.450;8.610;2023-05-28T12:38:14;5.85;;;1.83;;
73089;SDS011;61269;49.450;8.610;2023-05-28T12:40:42;5.53;;;1.70;;
73089;SDS011;61269;49.450;8.610;2023-05-28T12:43:10;4.88;;;1.55;;
73089;SDS011;61269;49.450;8.610;2023-05-28T12:45:38;4.85;;;1.42;;
73089;SDS011;61269;49.450;8.610;2023-05-28T12:48:08;4.13;;;1.33;;
73089;SDS011;61269;49.450;8.610;2023-05-28T12:50:36;5.00;;;1.50;;
73089;SDS011;61269;49.450;8.610;2023-05-28T12:53:04;6.63;;;1.70;;
73089;SDS011;61269;49.450;8.610;2023-05-28T12:55:33;5.55;;;1.80;;
73089;SDS011;61269;49.450;8.610;2023-05-28T12:58:02;6.85;;;1.80;;
73089;SDS011;61269;49.450;8.610;2023-05-28T13:00:30;4.80;;;1.55;;
73089;SDS011;61269;49.450;8.610;2023-05-28T13:02:58;4.90;;;1.58;;
73089;SDS011;61269;49.450;8.610;2023-05-28T13:05:31;5.93;;;1.57;;
73089;SDS011;61269;49.450;8.610;2023-05-28T13:08:00;5.43;;;1.83;;
73089;SDS011;61269;49.450;8.610;2023-05-28T13:10:29;7.13;;;1.80;;
73089;SDS011;61269;49.450;8.610;2023-05-28T13:12:57;5.90;;;1.98;;
73089;SDS011;61269;49.450;8.610;2023-05-28T13:15:25;8.30;;;2.30;;
73089;SDS011;61269;49.450;8.610;2023-05-28T13:17:54;5.57;;;1.70;;
73089;SDS011;61269;49.450;8.610;2023-05-28T13:20:24;6.18;;;1.60;;
73089;SDS011;61269;49.450;8.610;2023-05-28T13:22:54;5.82;;;1.45;;
73089;SDS011;61269;49.450;8.610;2023-05-28T13:25:22;7.10;;;1.85;;
73089;SDS011;61269;49.450;8.610;2023-05-28T13:27:50;5.28;;;1.63;;
73089;SDS011;61269;49.450;8.610;2023-05-28T13:30:19;10.27;;;1.70;;
73089;SDS011;61269;49.450;8.610;2023-05-28T13:32:47;7.28;;;2.40;;
73089;SDS011;61269;49.450;8.610;2023-05-28T13:35:15;5.07;;;1.38;;
73089;SDS011;61269;49.450;8.610;2023-05-28T13:37:43;6.97;;;1.70;;
73089;SDS011;61269;49.450;8.610;2023-05-28T13:40:13;6.15;;;1.40;;
73089;SDS011;61269;49.450;8.610;2023-05-28T13:42:42;7.17;;;1.60;;
73089;SDS011;61269;49.450;8.610;2023-05-28T13:45:11;5.53;;;1.80;;
73089;SDS011;61269;49.450;8.610;2023-05-28T13:47:40;5.50;;;1.70;;
73089;SDS011;61269;49.450;8.610;2023-05-28T13:50:08;4.68;;;1.73;;
73089;SDS011;61269;49.450;8.610;2023-05-28T13:52:37;8.45;;;1.88;;
73089;SDS011;61269;49.450;8.610;2023-05-28T13:55:05;5.67;;;1.67;;
73089;SDS011;61269;49.450;8.610;2023-05-28T13:57:36;5.00;;;1.50;;
73089;SDS011;61269;49.450;8.610;2023-05-28T14:00:04;4.82;;;1.42;;
73089;SDS011;61269;49.450;8.610;2023-05-28T14:02:37;5.60;;;1.63;;
73089;SDS011;61269;49.450;8.610;2023-05-28T14:05:06;5.30;;;1.83;;
73089;SDS011;61269;49.450;8.610;2023-05-28T14:07:35;6.63;;;1.80;;
73089;SDS011;61269;49.450;8.610;2023-05-28T14:10:03;5.28;;;1.80;;
73089;SDS011;61269;49.450;8.610;2023-05-28T14:12:31;4.78;;;1.58;;
73089;SDS011;61269;49.450;8.610;2023-05-28T14:15:01;6.25;;;1.90;;
73089;SDS011;61269;49.450;8.610;2023-05-28T14:17:30;5.95;;;1.83;;
73089;SDS011;61269;49.450;8.610;2023-05-28T14:19:58;4.87;;;1.50;;
73089;SDS011;61269;49.450;8.610;2023-05-28T14:22:27;5.85;;;1.70;;
73089;SDS011;61269;49.450;8.610;2023-05-28T14:24:55;4.82;;;1.73;;
73089;SDS011;61269;49.450;8.610;2023-05-28T14:27:23;6.15;;;1.95;;
73089;SDS011;61269;49.450;8.610;2023-05-28T14:29:51;4.85;;;1.63;;
73089;SDS011;61269;49.450;8.610;2023-05-28T14:32:21;4.83;;;1.70;;
73089;SDS011;61269;49.450;8.610;2023-05-28T14:34:49;5.68;;;1.60;;
73089;SDS011;61269;49.450;8.610;2023-05-28T14:37:18;6.30;;;2.08;;
73089;SDS011;61269;49.450;8.610;2023-05-28T14:39:46;5.88;;;1.67;;
73089;SDS011;61269;49.450;8.610;2023-05-28T14:42:14;4.55;;;1.45;;
73089;SDS011;61269;49.450;8.610;2023-05-28T14:44:42;7.13;;;1.67;;
73089;SDS011;61269;49.450;8.610;2023-05-28T14:47:12;7.03;;;2.10;;
73089;SDS011;61269;49.450;8.610;2023-05-28T14:49:41;4.88;;;1.58;;
73089;SDS011;61269;49.450;8.610;2023-05-28T14:52:20;5.82;;;1.70;;
73089;SDS011;61269;49.450;8.610;2023-05-28T14:54:50;7.15;;;1.77;;
73089;SDS011;61269;49.450;8.610;2023-05-28T14:57:18;5.13;;;1.63;;
73089;SDS011;61269;49.450;8.610;2023-05-28T14:59:47;4.28;;;1.65;;
73089;SDS011;61269;49.450;8.610;2023-05-28T15:02:15;5.53;;;1.88;;
73089;SDS011;61269;49.450;8.610;2023-05-28T15:04:45;5.45;;;1.60;;
73089;SDS011;61269;49.450;8.610;2023-05-28T15:07:14;5.90;;;1.85;;
73089;SDS011;61269;49.450;8.610;2023-05-28T15:09:42;6.00;;;1.83;;